createdAt,value
2018-10-18T00:00:26.308Z,54.70
2018-10-18T00:02:54.880Z,53.77
2018-10-18T00:05:23.442Z,49.77
2018-10-18T00:07:52.056Z,53.30
2018-10-18T00:10:20.803Z,51.93
2018-10-18T00:12:49.802Z,52.30
2018-10-18T00:15:18.346Z,52.30
2018-10-18T00:17:48.158Z,52.87
2018-10-18T00:20:17.494Z,54.43
2018-10-18T00:22:46.766Z,51.90
2018-10-18T00:25:16.275Z,52.17
2018-10-18T00:27:45.090Z,50.23
2018-10-18T00:30:14.950Z,50.07
2018-10-18T00:32:44.384Z,51.07
2018-10-18T00:35:13.694Z,50.37
2018-10-18T00:37:42.251Z,51.80
2018-10-18T00:40:12.324Z,51.60
2018-10-18T00:42:41.778Z,50.70
2018-10-18T00:45:11.081Z,50.70
2018-10-18T00:47:39.673Z,51.10
2018-10-18T00:50:09.888Z,48.47
2018-10-18T00:52:38.497Z,51.30
2018-10-18T00:55:08.186Z,51.40
2018-10-18T00:57:36.764Z,48.97
2018-10-18T01:00:06.479Z,51.70
2018-10-18T01:02:35.160Z,49.37
2018-10-18T01:05:03.820Z,51.90
2018-10-18T01:07:32.438Z,50.10
2018-10-18T01:10:01.030Z,49.20
2018-10-18T01:12:29.997Z,51.17
2018-10-18T01:14:58.428Z,54.23
2018-10-18T01:17:27.020Z,52.83
2018-10-18T01:19:55.649Z,50.87
2018-10-18T01:22:24.194Z,51.00
2018-10-18T01:24:52.734Z,52.23
2018-10-18T01:27:21.305Z,53.20
2018-10-18T01:29:49.980Z,51.80
2018-10-18T01:32:21.354Z,56.00
2018-10-18T01:34:50.074Z,52.40
2018-10-18T01:37:18.686Z,49.93
2018-10-18T01:39:47.286Z,49.37
2018-10-18T01:42:15.906Z,52.93
2018-10-18T01:44:44.460Z,50.80
2018-10-18T01:47:13.032Z,49.17
2018-10-18T01:49:41.603Z,50.03
2018-10-18T01:52:10.168Z,49.17
2018-10-18T01:54:38.771Z,50.10
2018-10-18T01:57:07.325Z,53.77
2018-10-18T01:59:35.932Z,50.07
2018-10-18T02:02:04.650Z,52.03
2018-10-18T02:04:33.274Z,54.90
2018-10-18T02:07:02.072Z,52.33
2018-10-18T02:09:31.218Z,50.50
2018-10-18T02:11:59.818Z,50.17
2018-10-18T02:14:28.675Z,49.47
2018-10-18T02:16:57.332Z,52.37
2018-10-18T02:19:25.916Z,49.73
2018-10-18T02:21:54.461Z,48.77
2018-10-18T02:24:23.840Z,58.00
2018-10-18T02:26:52.390Z,53.73
2018-10-18T02:29:20.968Z,52.10
2018-10-18T02:31:49.497Z,52.43
2018-10-18T02:34:18.340Z,50.00
2018-10-18T02:36:47.189Z,52.33
2018-10-18T02:39:15.778Z,51.90
2018-10-18T02:41:44.320Z,54.00
2018-10-18T02:44:12.874Z,51.83
2018-10-18T02:46:41.414Z,48.60
2018-10-18T02:49:10.998Z,48.83
2018-10-18T02:51:39.767Z,51.93
2018-10-18T02:54:08.440Z,52.67
2018-10-18T02:56:36.982Z,51.53
2018-10-18T02:59:06.026Z,48.67
2018-10-18T03:01:34.656Z,49.73
2018-10-18T03:04:03.428Z,50.37
2018-10-18T03:06:31.970Z,50.90
2018-10-18T03:09:00.695Z,50.77
2018-10-18T03:11:29.215Z,52.90
2018-10-18T03:13:57.791Z,52.47
2018-10-18T03:16:26.338Z,51.80
2018-10-18T03:18:54.933Z,50.70
2018-10-18T03:21:23.473Z,51.03
2018-10-18T03:23:52.092Z,52.50
2018-10-18T03:26:20.672Z,50.40
2018-10-18T03:28:49.277Z,51.67
2018-10-18T03:31:17.818Z,53.43
2018-10-18T03:33:46.389Z,49.43
2018-10-18T03:36:16.270Z,51.93
2018-10-18T03:38:44.915Z,51.43
2018-10-18T03:41:13.485Z,49.10
2018-10-18T03:43:42.089Z,49.90
2018-10-18T03:46:11.381Z,51.47
2018-10-18T03:48:39.947Z,48.33
2018-10-18T03:51:08.452Z,47.70
2018-10-18T03:53:37.119Z,48.27
2018-10-18T03:56:06.745Z,50.77
2018-10-18T03:58:35.370Z,48.13
2018-10-18T04:01:03.913Z,51.47
2018-10-18T04:03:32.640Z,48.83
2018-10-18T04:06:01.327Z,50.20
2018-10-18T04:08:29.837Z,51.77
2018-10-18T04:10:58.511Z,51.67
2018-10-18T04:13:27.092Z,51.17
2018-10-18T04:15:55.616Z,50.07
2018-10-18T04:18:24.210Z,54.37
2018-10-18T04:20:52.723Z,52.70
2018-10-18T04:23:30.829Z,50.40
2018-10-18T04:25:59.668Z,49.77
2018-10-18T04:28:28.391Z,49.07
2018-10-18T04:30:57.201Z,48.17
2018-10-18T04:33:26.163Z,48.20
2018-10-18T04:35:54.774Z,51.10
2018-10-18T04:38:23.331Z,50.97
2018-10-18T04:40:51.869Z,50.33
2018-10-18T04:43:20.640Z,49.90
2018-10-18T04:45:49.209Z,51.17
2018-10-18T04:48:17.990Z,50.70
2018-10-18T04:50:47.155Z,49.47
2018-10-18T04:53:15.743Z,49.00
2018-10-18T04:55:44.261Z,48.20
2018-10-18T04:58:12.883Z,48.07
2018-10-18T05:00:41.452Z,46.13
2018-10-18T05:03:09.989Z,46.57
2018-10-18T05:05:55.048Z,47.33
2018-10-18T05:08:24.989Z,48.63
2018-10-18T05:10:53.837Z,48.70
2018-10-18T05:13:22.435Z,45.80
2018-10-18T05:15:51.204Z,51.27
2018-10-18T05:18:20.314Z,49.13
2018-10-18T05:20:48.962Z,45.70
2018-10-18T05:23:17.492Z,51.10
2018-10-18T05:25:46.860Z,52.17
2018-10-18T05:28:15.390Z,50.37
2018-10-18T05:30:43.977Z,51.33
2018-10-18T05:33:12.639Z,47.60
2018-10-18T05:35:41.282Z,49.00
2018-10-18T05:38:12.796Z,49.33
2018-10-18T05:40:41.383Z,50.60
2018-10-18T05:43:10.438Z,49.97
2018-10-18T05:45:39.027Z,46.77
2018-10-18T05:48:07.586Z,48.93
2018-10-18T05:50:36.333Z,47.70
2018-10-18T05:53:05.246Z,50.07
2018-10-18T05:55:33.838Z,47.53
2018-10-18T05:58:02.580Z,49.60
2018-10-18T06:00:31.407Z,52.63
2018-10-18T06:02:59.996Z,47.23
2018-10-18T06:05:29.516Z,47.17
2018-10-18T06:07:58.155Z,47.20
2018-10-18T06:10:37.997Z,46.33
2018-10-18T06:13:06.834Z,50.53
2018-10-18T06:15:36.363Z,45.03
2018-10-18T06:18:05.489Z,46.57
2018-10-18T06:20:34.149Z,45.23
2018-10-18T06:23:02.964Z,46.60
2018-10-18T06:25:31.657Z,45.80
2018-10-18T06:28:00.601Z,45.40
2018-10-18T06:30:30.423Z,53.60
2018-10-18T06:32:59.086Z,50.27
2018-10-18T06:35:27.784Z,48.60
2018-10-18T06:37:56.546Z,51.77
2018-10-18T06:40:25.674Z,50.17
2018-10-18T06:42:55.327Z,49.47
2018-10-18T06:45:24.484Z,47.33
2018-10-18T06:47:53.343Z,49.10
2018-10-18T06:50:22.187Z,52.07
2018-10-18T06:52:50.780Z,47.53
2018-10-18T06:55:19.514Z,52.20
2018-10-18T06:57:48.063Z,51.33
2018-10-18T07:00:23.999Z,53.97
2018-10-18T07:02:53.493Z,50.67
2018-10-18T07:05:22.751Z,50.10
2018-10-18T07:07:51.635Z,48.17
2018-10-18T07:10:20.305Z,47.40
2018-10-18T07:12:49.001Z,53.47
2018-10-18T07:15:17.650Z,50.53
2018-10-18T07:17:46.543Z,49.63
2018-10-18T07:20:16.048Z,51.90
2018-10-18T07:22:44.651Z,53.23
2018-10-18T07:25:14.717Z,49.77
2018-10-18T07:27:43.707Z,50.80
2018-10-18T07:30:14.532Z,49.40
2018-10-18T07:32:44.191Z,50.13
2018-10-18T07:35:14.231Z,51.57
2018-10-18T07:37:42.769Z,50.70
2018-10-18T07:40:14.995Z,50.93
2018-10-18T07:42:44.016Z,50.83
2018-10-18T07:45:13.695Z,51.97
2018-10-18T07:47:43.037Z,52.03
2018-10-18T07:50:12.201Z,49.90
2018-10-18T07:52:40.871Z,48.50
2018-10-18T07:55:10.576Z,51.57
2018-10-18T07:57:39.826Z,52.30
2018-10-18T08:00:11.363Z,54.90
2018-10-18T08:02:40.173Z,52.50
2018-10-18T08:05:09.469Z,56.80
2018-10-18T08:07:38.543Z,54.13
2018-10-18T08:10:15.522Z,56.97
2018-10-18T08:12:44.230Z,53.90
2018-10-18T08:15:14.442Z,54.13
2018-10-18T08:17:44.860Z,54.87
2018-10-18T08:20:14.411Z,53.80
2018-10-18T08:22:43.669Z,56.27
2018-10-18T08:25:12.799Z,58.63
2018-10-18T08:27:41.915Z,54.30
2018-10-18T08:30:12.416Z,54.33
2018-10-18T08:32:41.540Z,55.40
2018-10-18T08:35:11.636Z,52.37
2018-10-18T08:37:40.534Z,57.80
2018-10-18T08:40:09.380Z,55.50
2018-10-18T08:42:38.465Z,53.70
2018-10-18T08:45:08.411Z,53.47
2018-10-18T08:47:37.367Z,54.23
2018-10-18T08:50:08.238Z,57.33
2018-10-18T08:52:37.421Z,57.50
2018-10-18T08:55:07.822Z,59.30
2018-10-18T08:57:36.640Z,59.20
2018-10-18T09:00:05.969Z,60.20
2018-10-18T09:02:34.672Z,61.20
2018-10-18T09:05:03.548Z,62.30
2018-10-18T09:07:33.126Z,60.80
2018-10-18T09:10:02.694Z,65.00
2018-10-18T09:12:31.732Z,68.70
2018-10-18T09:15:00.847Z,70.57
2018-10-18T09:17:29.503Z,66.77
2018-10-18T09:19:58.909Z,74.93
2018-10-18T09:22:27.735Z,71.83
2018-10-18T09:24:56.915Z,71.03
2018-10-18T09:27:25.557Z,80.40
2018-10-18T09:29:54.288Z,83.20
2018-10-18T09:32:23.134Z,88.70
2018-10-18T09:34:52.689Z,87.17
2018-10-18T09:37:21.665Z,87.30
2018-10-18T09:39:51.687Z,84.00
2018-10-18T09:42:20.459Z,87.17
2018-10-18T09:44:49.173Z,84.70
2018-10-18T09:47:17.770Z,84.00
2018-10-18T09:49:46.449Z,84.30
2018-10-18T09:52:15.041Z,79.10
2018-10-18T09:54:44.346Z,83.07
2018-10-18T09:57:13.258Z,72.90
2018-10-18T09:59:42.426Z,79.17
2018-10-18T10:02:16.359Z,80.97
2018-10-18T10:04:44.990Z,79.00
2018-10-18T10:07:14.286Z,82.97
2018-10-18T10:09:42.843Z,83.73
2018-10-18T10:12:11.602Z,81.20
2018-10-18T10:14:40.430Z,80.60
2018-10-18T10:17:09.216Z,77.13
2018-10-18T10:19:38.205Z,85.03
2018-10-18T10:22:06.860Z,83.53
2018-10-18T10:24:35.595Z,80.63
2018-10-18T10:27:04.248Z,87.73
2018-10-18T10:29:33.192Z,84.20
2018-10-18T10:32:02.314Z,79.70
2018-10-18T10:34:31.091Z,82.03
2018-10-18T10:36:59.788Z,86.70
2018-10-18T10:39:28.410Z,69.40
2018-10-18T10:41:57.064Z,81.40
2018-10-18T10:44:26.279Z,78.97
2018-10-18T10:46:54.962Z,78.20
2018-10-18T10:49:23.642Z,88.83
2018-10-18T10:51:52.336Z,81.13
2018-10-18T10:54:21.562Z,88.63
2018-10-18T10:56:50.236Z,83.50
2018-10-18T10:59:20.192Z,79.00
2018-10-18T11:01:48.804Z,87.20
2018-10-18T11:04:17.434Z,87.00
2018-10-18T11:06:46.340Z,86.40
2018-10-18T11:09:15.114Z,85.20
2018-10-18T11:11:43.902Z,82.20
2018-10-18T11:14:12.594Z,84.50
2018-10-18T11:16:41.223Z,74.50
2018-10-18T11:19:10.250Z,81.90
2018-10-18T11:21:39.454Z,83.50
2018-10-18T11:24:08.356Z,76.17
2018-10-18T11:26:37.014Z,80.87
2018-10-18T11:29:06.246Z,82.60
2018-10-18T11:31:35.669Z,67.87
2018-10-18T11:34:05.214Z,75.57
2018-10-18T11:36:33.816Z,83.53
2018-10-18T11:39:02.697Z,72.83
2018-10-18T11:41:31.813Z,75.20
2018-10-18T11:44:00.606Z,81.90
2018-10-18T11:46:29.346Z,77.63
2018-10-18T11:48:57.998Z,77.43
2018-10-18T11:51:26.632Z,78.43
2018-10-18T11:53:55.322Z,81.07
2018-10-18T11:56:24.615Z,78.43
2018-10-18T11:58:53.346Z,59.13
2018-10-18T12:01:22.314Z,74.53
2018-10-18T12:03:50.958Z,72.23
2018-10-18T12:06:19.638Z,82.33
2018-10-18T12:08:48.382Z,69.07
2018-10-18T12:11:17.151Z,73.10
2018-10-18T12:13:46.198Z,84.47
2018-10-18T12:16:15.046Z,84.77
2018-10-18T12:18:44.810Z,72.63
2018-10-18T12:21:14.284Z,50.97
2018-10-18T12:23:42.948Z,67.57
2018-10-18T12:26:11.641Z,82.07
2018-10-18T12:28:40.280Z,85.17
2018-10-18T12:31:09.556Z,77.03
2018-10-18T12:33:38.366Z,78.23
2018-10-18T12:36:07.248Z,68.27
2018-10-18T12:38:36.685Z,74.43
2018-10-18T12:41:06.256Z,66.60
2018-10-18T12:43:35.040Z,74.80
2018-10-18T12:46:03.811Z,81.03
2018-10-18T12:48:32.596Z,76.60
2018-10-18T12:51:01.749Z,54.80
2018-10-18T12:53:30.378Z,75.50
2018-10-18T12:55:59.797Z,81.73
2018-10-18T12:58:28.993Z,85.23
2018-10-18T13:00:58.562Z,75.77
2018-10-18T13:03:29.220Z,76.20
2018-10-18T13:05:58.024Z,67.80
2018-10-18T13:08:27.547Z,78.60
2018-10-18T13:10:56.552Z,81.07
2018-10-18T13:13:25.214Z,71.97
2018-10-18T13:15:54.701Z,53.23
2018-10-18T13:18:23.712Z,80.27
2018-10-18T13:20:52.378Z,78.97
2018-10-18T13:23:22.838Z,72.33
2018-10-18T13:25:51.545Z,74.10
2018-10-18T13:28:20.349Z,67.13
2018-10-18T13:30:49.102Z,74.67
2018-10-18T13:33:17.917Z,76.60
2018-10-18T13:35:46.721Z,73.97
2018-10-18T13:38:16.069Z,77.20
2018-10-18T13:40:45.194Z,68.07
2018-10-18T13:43:15.446Z,73.53
2018-10-18T13:45:45.336Z,79.60
2018-10-18T13:48:14.556Z,71.17
2018-10-18T13:50:43.483Z,79.80
2018-10-18T13:53:13.024Z,69.20
2018-10-18T13:55:41.760Z,79.87
2018-10-18T13:58:11.133Z,73.00
2018-10-18T14:00:41.191Z,74.90
2018-10-18T14:03:09.945Z,74.10
2018-10-18T14:05:38.680Z,74.13
2018-10-18T14:08:07.641Z,72.80
2018-10-18T14:10:36.283Z,74.37
2018-10-18T14:13:05.337Z,49.87
2018-10-18T14:15:34.972Z,71.80
2018-10-18T14:18:03.862Z,78.30
2018-10-18T14:20:33.246Z,73.93
2018-10-18T14:23:02.313Z,69.43
2018-10-18T14:25:31.698Z,74.90
2018-10-18T14:28:01.924Z,75.90
2018-10-18T14:30:30.969Z,49.33
2018-10-18T14:32:59.609Z,74.37
2018-10-18T14:35:28.519Z,76.97
2018-10-18T14:37:58.061Z,76.27
2018-10-18T14:40:27.449Z,72.90
2018-10-18T14:42:57.389Z,58.30
2018-10-18T14:45:26.146Z,67.00
2018-10-18T14:47:54.932Z,74.37
2018-10-18T14:50:23.808Z,68.47
2018-10-18T14:52:52.950Z,69.40
2018-10-18T14:55:21.651Z,73.83
2018-10-18T14:57:50.495Z,74.13
2018-10-18T15:00:19.387Z,73.10
2018-10-18T15:02:48.127Z,76.00
2018-10-18T15:05:18.050Z,68.53
2018-10-18T15:07:46.887Z,65.20
2018-10-18T15:10:16.290Z,74.80
2018-10-18T15:12:45.314Z,78.07
2018-10-18T15:15:15.198Z,76.03
2018-10-18T15:17:44.269Z,79.43
2018-10-18T15:20:13.653Z,61.47
2018-10-18T15:22:43.089Z,74.20
2018-10-18T15:25:12.873Z,73.60
2018-10-18T15:27:42.822Z,70.83
2018-10-18T15:30:12.055Z,65.27
2018-10-18T15:32:41.067Z,63.47
2018-10-18T15:35:11.062Z,65.93
2018-10-18T15:37:40.392Z,80.50
2018-10-18T15:40:09.820Z,70.53
2018-10-18T15:42:38.726Z,74.87
2018-10-18T15:45:08.012Z,79.60
2018-10-18T15:47:36.958Z,77.10
2018-10-18T15:50:07.286Z,54.83
2018-10-18T15:52:36.183Z,53.40
2018-10-18T15:55:05.104Z,71.60
2018-10-18T15:57:34.121Z,42.43
2018-10-18T16:00:02.903Z,58.63
2018-10-18T16:02:31.866Z,73.13
2018-10-18T16:05:00.506Z,70.60
2018-10-18T16:07:29.903Z,68.03
2018-10-18T16:09:58.621Z,73.77
2018-10-18T16:12:28.169Z,69.90
2018-10-18T16:14:57.043Z,68.43
2018-10-18T16:17:25.743Z,71.40
2018-10-18T16:19:54.424Z,35.17
2018-10-18T16:22:23.317Z,70.27
2018-10-18T16:24:52.574Z,66.90
2018-10-18T16:27:22.565Z,66.00
2018-10-18T16:29:51.519Z,69.17
2018-10-18T16:32:20.276Z,68.47
2018-10-18T16:34:49.703Z,58.93
2018-10-18T16:37:18.639Z,60.67
2018-10-18T16:39:47.345Z,66.73
2018-10-18T16:42:16.386Z,66.93
2018-10-18T16:44:45.119Z,59.83
2018-10-18T16:47:13.866Z,62.40
2018-10-18T16:49:42.551Z,58.80
2018-10-18T16:52:11.447Z,60.90
2018-10-18T16:54:40.315Z,57.97
2018-10-18T16:57:09.176Z,61.67
2018-10-18T16:59:37.848Z,60.70
2018-10-18T17:02:06.765Z,60.00
2018-10-18T17:04:35.502Z,58.63
2018-10-18T17:07:04.172Z,56.37
2018-10-18T17:09:32.847Z,57.20
2018-10-18T17:12:02.457Z,62.43
2018-10-18T17:14:32.914Z,63.30
2018-10-18T17:17:02.894Z,60.40
2018-10-18T17:19:33.711Z,59.17
2018-10-18T17:22:02.681Z,60.67
2018-10-18T17:24:31.360Z,55.30
2018-10-18T17:27:00.673Z,53.63
2018-10-18T17:29:29.655Z,53.20
2018-10-18T17:31:59.027Z,61.87
2018-10-18T17:34:27.824Z,55.60
2018-10-18T17:36:59.417Z,56.93
2018-10-18T17:39:28.325Z,56.17
2018-10-18T17:41:57.641Z,54.93
2018-10-18T17:44:26.519Z,53.83
2018-10-18T17:46:56.209Z,56.57
2018-10-18T17:49:24.962Z,54.20
2018-10-18T17:51:53.768Z,53.70
2018-10-18T17:54:23.220Z,52.90
2018-10-18T17:56:51.912Z,50.80
2018-10-18T17:59:20.517Z,51.47
2018-10-18T18:01:49.181Z,55.70
2018-10-18T18:04:18.627Z,54.23
2018-10-18T18:06:47.441Z,57.70
2018-10-18T18:09:16.365Z,61.40
2018-10-18T18:11:45.974Z,52.30
2018-10-18T18:14:15.572Z,50.60
2018-10-18T18:16:44.302Z,49.00
2018-10-18T18:19:13.158Z,49.50
2018-10-18T18:21:41.888Z,51.70
2018-10-18T18:24:11.613Z,49.13
2018-10-18T18:26:45.346Z,53.30
2018-10-18T18:29:08.956Z,55.13
2018-10-18T18:31:38.410Z,52.70
2018-10-18T18:34:07.038Z,47.00
2018-10-18T18:36:35.954Z,48.27
2018-10-18T18:39:06.776Z,50.97
2018-10-18T18:41:35.426Z,50.40
2018-10-18T18:44:04.158Z,49.67
2018-10-18T18:46:33.462Z,49.57
2018-10-18T18:49:02.265Z,49.03
2018-10-18T18:51:31.336Z,49.77
2018-10-18T18:54:01.977Z,47.20
2018-10-18T18:56:30.751Z,48.60
2018-10-18T18:58:59.596Z,49.60
2018-10-18T19:01:29.284Z,49.27
2018-10-18T19:03:57.980Z,49.70
2018-10-18T19:06:26.590Z,48.70
2018-10-18T19:08:55.190Z,49.57
2018-10-18T19:11:23.827Z,48.07
2018-10-18T19:13:54.400Z,50.10
2018-10-18T19:16:23.070Z,49.07
2018-10-18T19:18:51.910Z,48.30
2018-10-18T19:21:20.548Z,46.70
2018-10-18T19:23:49.262Z,52.00
2018-10-18T19:26:17.964Z,47.10
2018-10-18T19:28:46.632Z,50.40
2018-10-18T19:31:15.301Z,48.60
2018-10-18T19:33:43.966Z,51.13
2018-10-18T19:36:12.826Z,48.40
2018-10-18T19:38:41.487Z,48.97
2018-10-18T19:41:10.169Z,48.47
2018-10-18T19:43:38.795Z,50.47
2018-10-18T19:46:07.812Z,49.80
2018-10-18T19:48:37.299Z,49.47
2018-10-18T19:51:06.417Z,48.80
2018-10-18T19:53:35.073Z,49.37
2018-10-18T19:56:03.816Z,49.47
2018-10-18T19:58:32.417Z,50.70
2018-10-18T20:01:01.856Z,53.53
2018-10-18T20:03:30.439Z,53.13
2018-10-18T20:05:59.271Z,51.40
2018-10-18T20:08:27.874Z,52.00
2018-10-18T20:10:56.576Z,52.30
2018-10-18T20:13:25.760Z,54.27
2018-10-18T20:15:54.718Z,51.07
2018-10-18T20:18:24.045Z,51.83
2018-10-18T20:20:52.683Z,49.00
2018-10-18T20:23:22.898Z,50.17
2018-10-18T20:25:51.737Z,50.17
2018-10-18T20:28:20.615Z,53.60
2018-10-18T20:30:49.282Z,53.97
2018-10-18T20:33:19.253Z,52.47
2018-10-18T20:35:48.193Z,50.97
2018-10-18T20:38:17.098Z,48.30
2018-10-18T20:40:46.315Z,49.37
2018-10-18T20:43:15.084Z,47.57
2018-10-18T20:45:44.282Z,47.23
2018-10-18T20:48:13.059Z,46.77
2018-10-18T20:50:41.747Z,44.30
2018-10-18T20:53:10.701Z,46.20
2018-10-18T20:55:39.652Z,47.13
2018-10-18T20:58:08.403Z,49.07
2018-10-18T21:00:37.135Z,48.17
2018-10-18T21:03:06.350Z,47.37
2018-10-18T21:05:34.969Z,46.33
2018-10-18T21:08:03.533Z,45.30
2018-10-18T21:10:33.643Z,45.73
2018-10-18T21:13:02.717Z,46.17
2018-10-18T21:15:31.499Z,44.97
2018-10-18T21:18:00.768Z,45.77
2018-10-18T21:20:29.418Z,45.90
2018-10-18T21:22:58.555Z,45.53
2018-10-18T21:25:27.899Z,46.50
2018-10-18T21:27:56.771Z,49.50
2018-10-18T21:30:25.370Z,48.87
2018-10-18T21:32:53.945Z,48.43
2018-10-18T21:35:24.282Z,50.50
2018-10-18T21:37:53.345Z,46.90
2018-10-18T21:40:21.946Z,44.90
2018-10-18T21:42:50.534Z,48.43
2018-10-18T21:45:19.587Z,48.30
2018-10-18T21:47:48.278Z,47.57
2018-10-18T21:50:16.965Z,44.60
2018-10-18T21:52:45.574Z,50.23
2018-10-18T21:55:16.056Z,44.23
2018-10-18T21:57:44.712Z,49.40
2018-10-18T22:00:15.690Z,48.00
2018-10-18T22:02:45.355Z,45.80
2018-10-18T22:05:15.168Z,46.63
2018-10-18T22:07:44.380Z,44.77
2018-10-18T22:10:13.716Z,46.70
2018-10-18T22:12:42.430Z,46.57
2018-10-18T22:15:11.548Z,41.17
2018-10-18T22:17:40.196Z,44.53
2018-10-18T22:20:10.281Z,46.27
2018-10-18T22:22:38.866Z,42.87
2018-10-18T22:25:08.703Z,44.57
2018-10-18T22:27:37.374Z,45.90
2018-10-18T22:30:07.283Z,42.90
2018-10-18T22:32:36.094Z,39.90
2018-10-18T22:35:05.149Z,40.77
2018-10-18T22:37:34.023Z,39.73
2018-10-18T22:40:03.003Z,38.70
2018-10-18T22:42:31.629Z,39.60
2018-10-18T22:45:00.394Z,39.67
2018-10-18T22:47:29.076Z,39.10
2018-10-18T22:49:57.684Z,37.40
2018-10-18T22:52:26.344Z,37.40
2018-10-18T22:54:55.680Z,39.20
2018-10-18T22:57:24.286Z,40.83
2018-10-18T22:59:52.942Z,38.13
2018-10-18T23:02:21.500Z,35.20
2018-10-18T23:04:50.186Z,35.40
2018-10-18T23:07:19.404Z,38.40
2018-10-18T23:09:48.014Z,33.53
2018-10-18T23:12:16.690Z,35.30
2018-10-18T23:14:45.507Z,30.87
2018-10-18T23:17:14.352Z,32.17
2018-10-18T23:19:42.982Z,32.70
2018-10-18T23:22:11.607Z,33.10
2018-10-18T23:24:40.269Z,31.83
2018-10-18T23:27:09.355Z,30.70
2018-10-18T23:29:39.244Z,28.33
2018-10-18T23:32:08.528Z,28.07
2018-10-18T23:34:37.489Z,28.43
2018-10-18T23:37:06.236Z,28.77
2018-10-18T23:39:34.924Z,27.27
2018-10-18T23:42:04.535Z,27.50
2018-10-18T23:44:33.261Z,26.00
2018-10-18T23:47:01.939Z,27.63
2018-10-18T23:49:31.003Z,25.67
2018-10-18T23:51:59.622Z,21.60
2018-10-18T23:54:28.817Z,18.77
2018-10-18T23:56:57.581Z,22.83
2018-10-18T23:59:26.901Z,18.70
